createdAt,value
2022-12-24T00:02:14.313Z,29.27
2022-12-24T00:07:17.493Z,26.55
2022-12-24T00:12:20.020Z,30.87
2022-12-24T00:17:22.637Z,31.42
2022-12-24T00:22:25.306Z,23.83
2022-12-24T00:27:27.959Z,23.98
2022-12-24T00:32:30.571Z,28.00
2022-12-24T00:37:33.059Z,23.60
2022-12-24T00:42:35.561Z,18.73
2022-12-24T00:47:38.066Z,20.97
2022-12-24T00:52:40.620Z,18.80
2022-12-24T00:57:43.112Z,21.30
2022-12-24T01:02:45.783Z,22.23
2022-12-24T01:07:51.485Z,22.88
2022-12-24T01:12:55.082Z,18.20
2022-12-24T01:17:58.652Z,17.35
2022-12-24T01:23:01.158Z,21.00
2022-12-24T01:28:03.804Z,18.50
2022-12-24T01:33:06.280Z,22.40
2022-12-24T01:38:09.232Z,22.30
2022-12-24T01:43:25.254Z,20.88
2022-12-24T01:49:07.249Z,25.05
2022-12-24T01:54:42.476Z,24.23
2022-12-24T01:59:49.670Z,21.02
2022-12-24T02:05:06.467Z,25.90
2022-12-24T02:10:12.106Z,26.55
2022-12-24T02:15:17.550Z,20.17
2022-12-24T02:21:20.449Z,24.47
2022-12-24T02:26:52.990Z,23.25
2022-12-24T02:32:13.932Z,20.23
2022-12-24T02:37:26.748Z,26.63
2022-12-24T02:42:38.427Z,37.20
2022-12-24T02:47:43.359Z,40.40
2022-12-24T02:52:47.497Z,45.63
2022-12-24T02:58:11.365Z,36.10
2022-12-24T03:03:35.196Z,35.05
2022-12-24T03:08:43.613Z,35.28
2022-12-24T03:13:47.709Z,36.43
2022-12-24T03:18:52.975Z,45.13
2022-12-24T03:23:58.298Z,36.90
2022-12-24T03:29:01.009Z,36.58
2022-12-24T03:34:03.534Z,41.95
2022-12-24T03:39:06.485Z,32.20
2022-12-24T03:44:09.157Z,26.90
2022-12-24T03:49:11.791Z,34.27
2022-12-24T03:54:14.887Z,39.40
2022-12-24T03:59:17.394Z,42.55
2022-12-24T04:04:19.880Z,39.27
2022-12-24T04:09:22.345Z,32.05
2022-12-24T04:14:24.896Z,37.47
2022-12-24T04:19:27.613Z,60.78
2022-12-24T04:24:30.140Z,43.20
2022-12-24T04:29:32.606Z,37.77
2022-12-24T04:34:35.162Z,44.30
2022-12-24T04:39:38.102Z,50.37
2022-12-24T04:44:40.582Z,37.78
2022-12-24T04:49:43.161Z,49.95
2022-12-24T04:54:45.745Z,40.43
2022-12-24T04:59:48.252Z,60.08
2022-12-24T05:04:50.746Z,49.33
2022-12-24T05:09:53.339Z,44.85
2022-12-24T05:14:58.851Z,38.63
2022-12-24T05:20:01.391Z,66.73
2022-12-24T05:25:24.169Z,39.90
2022-12-24T05:30:26.647Z,28.67
2022-12-24T05:35:29.137Z,35.08
2022-12-24T05:40:31.707Z,24.65
2022-12-24T05:45:34.372Z,30.00
2022-12-24T05:50:40.627Z,25.77
2022-12-24T05:55:45.846Z,25.63
2022-12-24T06:00:48.525Z,28.35
2022-12-24T06:05:59.251Z,27.80
2022-12-24T06:11:06.257Z,32.83
2022-12-24T06:16:11.681Z,31.77
2022-12-24T06:21:14.335Z,36.60
2022-12-24T06:26:20.363Z,46.20
2022-12-24T06:31:24.086Z,39.00
2022-12-24T06:36:26.724Z,49.20
2022-12-24T06:41:29.310Z,39.53
2022-12-24T06:46:34.634Z,35.93
2022-12-24T06:51:37.209Z,46.33
2022-12-24T06:56:42.740Z,51.58
2022-12-24T07:01:45.463Z,58.50
2022-12-24T07:06:48.113Z,54.65
2022-12-24T07:11:50.593Z,52.20
2022-12-24T07:16:59.142Z,51.45
2022-12-24T07:22:57.348Z,44.15
2022-12-24T07:27:59.805Z,36.67
2022-12-24T07:33:02.315Z,45.58
2022-12-24T07:38:04.876Z,45.93
2022-12-24T07:43:08.393Z,37.88
2022-12-24T07:48:10.924Z,47.60
2022-12-24T07:53:13.458Z,37.77
2022-12-24T07:58:16.676Z,38.92
2022-12-24T08:03:22.785Z,49.37
2022-12-24T08:08:25.896Z,38.38
2022-12-24T08:13:29.160Z,41.60
2022-12-24T08:18:32.427Z,46.33
2022-12-24T08:23:36.266Z,33.20
2022-12-24T08:28:39.690Z,41.10
2022-12-24T08:33:42.389Z,39.80
2022-12-24T08:38:44.941Z,36.42
2022-12-24T08:43:47.418Z,44.83
2022-12-24T08:48:50.124Z,48.10
2022-12-24T08:53:53.921Z,46.90
2022-12-24T08:58:56.514Z,41.75
2022-12-24T09:04:05.356Z,40.13
2022-12-24T09:09:08.875Z,40.17
2022-12-24T09:14:11.933Z,34.75
2022-12-24T09:19:14.671Z,31.30
2022-12-24T09:31:58.821Z,44.08
2022-12-24T09:37:03.316Z,36.03
2022-12-24T09:42:36.563Z,45.03
2022-12-24T09:47:47.344Z,37.20
2022-12-24T09:52:52.583Z,36.15
2022-12-24T09:57:58.550Z,35.67
2022-12-24T10:03:01.108Z,41.00
2022-12-24T10:08:21.904Z,40.83
2022-12-24T10:13:38.662Z,38.57
2022-12-24T10:19:03.165Z,31.33
2022-12-24T10:24:18.182Z,59.95
2022-12-24T10:29:28.013Z,50.67
2022-12-24T10:34:37.306Z,34.97
2022-12-24T10:39:39.920Z,48.27
2022-12-24T10:44:43.926Z,51.65
2022-12-24T10:49:54.359Z,36.42
2022-12-24T10:55:06.198Z,57.30
2022-12-24T11:00:23.427Z,38.38
2022-12-24T11:05:33.874Z,32.27
2022-12-24T11:10:40.237Z,36.08
2022-12-24T11:15:43.970Z,37.75
2022-12-24T11:20:52.739Z,45.70
2022-12-24T11:25:57.574Z,32.03
2022-12-24T11:31:23.064Z,46.77
2022-12-24T11:36:27.824Z,29.80
2022-12-24T11:41:37.676Z,31.63
2022-12-24T11:46:43.647Z,36.70
2022-12-24T11:52:11.433Z,30.23
2022-12-24T11:57:16.609Z,41.93
2022-12-24T12:02:38.703Z,35.50
2022-12-24T12:07:43.884Z,35.45
2022-12-24T12:12:52.505Z,24.50
2022-12-24T12:18:07.874Z,33.65
2022-12-24T12:23:23.897Z,30.07
2022-12-24T12:28:44.776Z,32.10
2022-12-24T12:34:04.977Z,35.78
2022-12-24T12:39:11.005Z,29.67
2022-12-24T12:44:19.153Z,30.00
2022-12-24T12:50:03.806Z,30.37
2022-12-24T12:55:43.206Z,32.13
2022-12-24T13:00:51.957Z,35.42
2022-12-24T13:06:45.140Z,27.77
2022-12-24T13:12:00.809Z,30.92
2022-12-24T13:17:12.296Z,30.40
2022-12-24T13:22:22.586Z,28.92
2022-12-24T13:27:26.709Z,22.73
2022-12-24T13:32:32.025Z,26.53
2022-12-24T13:37:35.642Z,27.90
2022-12-24T13:43:01.362Z,25.87
2022-12-24T13:48:07.055Z,26.63
2022-12-24T13:53:41.339Z,24.65
2022-12-24T13:58:51.952Z,30.33
2022-12-24T14:03:59.338Z,26.95
2022-12-24T14:09:15.797Z,34.23
2022-12-24T14:14:39.311Z,47.13
2022-12-24T14:19:44.457Z,34.85
2022-12-24T14:24:55.624Z,33.03
2022-12-24T14:30:13.392Z,45.22
2022-12-24T14:35:20.370Z,45.47
2022-12-24T14:40:28.833Z,35.83
2022-12-24T14:45:42.412Z,24.48
2022-12-24T14:50:57.205Z,29.63
2022-12-24T14:55:59.821Z,29.35
2022-12-24T15:01:19.613Z,19.90
2022-12-24T15:06:22.642Z,23.50
2022-12-24T15:11:25.732Z,19.05
2022-12-24T15:16:33.096Z,17.53
2022-12-24T15:21:41.853Z,19.50
2022-12-24T15:26:45.261Z,22.53
2022-12-24T15:31:53.724Z,18.23
2022-12-24T15:37:10.598Z,14.93
2022-12-24T15:42:19.957Z,16.13
2022-12-24T15:47:28.131Z,16.27
2022-12-24T15:52:32.557Z,14.63
2022-12-24T15:57:35.977Z,16.63
2022-12-24T16:02:40.224Z,18.70
2022-12-24T16:08:18.844Z,14.60
2022-12-24T16:13:31.937Z,14.70
2022-12-24T16:18:42.956Z,12.30
2022-12-24T16:23:48.962Z,13.55
2022-12-24T16:28:51.703Z,11.25
2022-12-24T16:33:57.945Z,12.57
2022-12-24T16:39:19.418Z,13.52
2022-12-24T16:44:21.963Z,15.03
2022-12-24T16:49:24.567Z,12.25
2022-12-24T16:54:27.120Z,12.60
2022-12-24T16:59:29.787Z,10.13
2022-12-24T17:04:33.629Z,15.35
2022-12-24T17:09:36.213Z,13.00
2022-12-24T17:14:40.097Z,11.55
2022-12-24T17:19:42.681Z,11.80
2022-12-24T17:24:45.426Z,10.40
2022-12-24T17:29:49.439Z,12.15
2022-12-24T17:34:51.969Z,13.13
2022-12-24T17:39:54.650Z,12.68
2022-12-24T17:44:57.187Z,10.35
2022-12-24T17:49:59.719Z,8.30
2022-12-24T17:55:02.325Z,12.80
2022-12-24T18:00:08.543Z,10.47
2022-12-24T18:05:11.215Z,9.05
2022-12-24T18:10:13.834Z,12.68
2022-12-24T18:15:20.480Z,9.10
2022-12-24T18:20:25.719Z,12.93
2022-12-24T18:25:28.714Z,11.60
2022-12-24T18:30:31.300Z,9.63
2022-12-24T18:35:33.834Z,10.45
2022-12-24T18:40:37.552Z,12.60
2022-12-24T18:45:44.781Z,11.07
2022-12-24T18:50:56.620Z,11.27
2022-12-24T18:56:07.622Z,11.30
2022-12-24T19:01:15.601Z,9.02
2022-12-24T19:06:19.509Z,9.90
2022-12-24T19:11:22.652Z,14.02
2022-12-24T19:16:25.580Z,12.73
2022-12-24T19:21:28.535Z,10.80
2022-12-24T19:26:33.139Z,11.98
2022-12-24T19:31:35.929Z,12.73
2022-12-24T19:36:38.486Z,13.20
2022-12-24T19:41:41.376Z,10.77
2022-12-24T19:46:43.917Z,12.88
2022-12-24T19:51:46.858Z,13.52
2022-12-24T19:56:49.372Z,15.27
2022-12-24T20:01:54.431Z,15.07
2022-12-24T20:07:00.375Z,15.07
2022-12-24T20:12:03.925Z,12.75
2022-12-24T20:17:06.501Z,13.32
2022-12-24T20:22:09.119Z,16.50
2022-12-24T20:27:11.963Z,11.50
2022-12-24T20:32:17.201Z,17.07
2022-12-24T20:37:19.811Z,14.00
2022-12-24T20:42:22.430Z,10.63
2022-12-24T20:47:24.893Z,9.60
2022-12-24T20:52:27.389Z,7.20
2022-12-24T20:57:35.929Z,8.57
2022-12-24T21:02:39.306Z,8.50
2022-12-24T21:07:44.490Z,10.23
2022-12-24T21:12:50.434Z,10.10
2022-12-24T21:17:56.727Z,8.73
2022-12-24T21:23:02.520Z,14.60
2022-12-24T21:28:05.209Z,12.20
2022-12-24T21:33:07.695Z,9.90
2022-12-24T21:38:10.161Z,11.23
2022-12-24T21:43:12.875Z,11.65
2022-12-24T21:48:33.804Z,8.67
2022-12-24T21:53:55.613Z,10.95
2022-12-24T21:58:58.081Z,15.10
2022-12-24T22:04:00.580Z,10.10
2022-12-24T22:09:22.440Z,10.52
2022-12-24T22:14:24.900Z,9.97
2022-12-24T22:19:27.396Z,12.52
2022-12-24T22:24:29.954Z,10.75
2022-12-24T22:29:34.829Z,8.53
2022-12-24T22:34:37.366Z,8.25
2022-12-24T22:39:39.913Z,9.00
2022-12-24T22:44:42.417Z,10.90
2022-12-24T22:49:44.920Z,10.05
2022-12-24T22:54:48.638Z,11.00
2022-12-24T22:59:51.272Z,9.13
2022-12-24T23:04:53.925Z,9.20
2022-12-24T23:09:57.305Z,11.23
2022-12-24T23:15:00.022Z,9.55
2022-12-24T23:20:04.043Z,12.30
2022-12-24T23:25:06.659Z,13.02
2022-12-24T23:30:09.801Z,12.97
2022-12-24T23:35:12.337Z,10.60
2022-12-24T23:40:14.994Z,10.70
2022-12-24T23:45:18.619Z,12.40
2022-12-24T23:50:21.355Z,10.65
2022-12-24T23:55:23.853Z,11.37
